sensor_id;sensor_type;location;lat;lon;timestamp;P1;durP1;ratioP1;P2;durP2;ratioP2
51475;SDS011;37554;50.362;7.568;2023-11-18T00:00:28;8.40;;;6.90;;
51475;SDS011;37554;50.362;7.568;2023-11-18T00:02:54;7.78;;;7.00;;
51475;SDS011;37554;50.362;7.568;2023-11-18T00:05:20;6.65;;;6.03;;
51475;SDS011;37554;50.362;7.568;2023-11-18T00:07:46;7.20;;;6.47;;
51475;SDS011;37554;50.362;7.568;2023-11-18T00:10:12;7.32;;;6.68;;
51475;SDS011;37554;50.362;7.568;2023-11-18T00:12:38;8.65;;;7.03;;
51475;SDS011;37554;50.362;7.568;2023-11-18T00:15:07;7.60;;;6.90;;
51475;SDS011;37554;50.362;7.568;2023-11-18T00:17:37;7.78;;;6.82;;
51475;SDS011;37554;50.362;7.568;2023-11-18T00:20:03;8.07;;;7.13;;
51475;SDS011;37554;50.362;7.568;2023-11-18T00:22:34;6.85;;;6.25;;
51475;SDS011;37554;50.362;7.568;2023-11-18T00:25:03;7.90;;;7.05;;
51475;SDS011;37554;50.362;7.568;2023-11-18T00:27:34;8.23;;;7.43;;
51475;SDS011;37554;50.362;7.568;2023-11-18T00:30:02;8.80;;;7.13;;
51475;SDS011;37554;50.362;7.568;2023-11-18T00:32:30;8.50;;;6.90;;
51475;SDS011;37554;50.362;7.568;2023-11-18T00:34:56;7.93;;;7.20;;
51475;SDS011;37554;50.362;7.568;2023-11-18T00:37:22;7.93;;;7.13;;
51475;SDS011;37554;50.362;7.568;2023-11-18T00:39:48;9.30;;;7.32;;
51475;SDS011;37554;50.362;7.568;2023-11-18T00:42:13;8.50;;;7.03;;
51475;SDS011;37554;50.362;7.568;2023-11-18T00:44:39;7.78;;;7.07;;
51475;SDS011;37554;50.362;7.568;2023-11-18T00:47:06;7.82;;;7.05;;
51475;SDS011;37554;50.362;7.568;2023-11-18T00:49:31;8.73;;;6.97;;
51475;SDS011;37554;50.362;7.568;2023-11-18T00:51:58;8.02;;;7.05;;
51475;SDS011;37554;50.362;7.568;2023-11-18T00:54:24;7.45;;;6.75;;
51475;SDS011;37554;50.362;7.568;2023-11-18T00:56:50;8.07;;;7.28;;
51475;SDS011;37554;50.362;7.568;2023-11-18T00:59:15;7.28;;;6.55;;
51475;SDS011;37554;50.362;7.568;2023-11-18T01:01:41;7.72;;;6.93;;
51475;SDS011;37554;50.362;7.568;2023-11-18T01:04:07;9.85;;;7.22;;
51475;SDS011;37554;50.362;7.568;2023-11-18T01:06:33;7.95;;;7.15;;
51475;SDS011;37554;50.362;7.568;2023-11-18T01:08:59;7.40;;;6.63;;
51475;SDS011;37554;50.362;7.568;2023-11-18T01:11:25;7.85;;;7.05;;
51475;SDS011;37554;50.362;7.568;2023-11-18T01:13:51;8.00;;;7.18;;
51475;SDS011;37554;50.362;7.568;2023-11-18T01:16:19;7.55;;;6.75;;
51475;SDS011;37554;50.362;7.568;2023-11-18T01:18:45;7.57;;;6.88;;
51475;SDS011;37554;50.362;7.568;2023-11-18T01:21:11;8.25;;;6.65;;
51475;SDS011;37554;50.362;7.568;2023-11-18T01:23:37;7.63;;;6.93;;
51475;SDS011;37554;50.362;7.568;2023-11-18T01:26:06;7.20;;;6.47;;
51475;SDS011;37554;50.362;7.568;2023-11-18T01:28:36;8.77;;;7.30;;
51475;SDS011;37554;50.362;7.568;2023-11-18T01:31:04;7.72;;;6.28;;
51475;SDS011;37554;50.362;7.568;2023-11-18T01:33:30;7.68;;;6.97;;
51475;SDS011;37554;50.362;7.568;2023-11-18T01:35:57;7.28;;;6.57;;
51475;SDS011;37554;50.362;7.568;2023-11-18T01:38:23;7.32;;;6.63;;
51475;SDS011;37554;50.362;7.568;2023-11-18T01:40:51;6.78;;;6.18;;
51475;SDS011;37554;50.362;7.568;2023-11-18T01:43:18;6.60;;;6.00;;
51475;SDS011;37554;50.362;7.568;2023-11-18T01:45:44;6.43;;;5.70;;
51475;SDS011;37554;50.362;7.568;2023-11-18T01:48:09;7.80;;;6.72;;
51475;SDS011;37554;50.362;7.568;2023-11-18T01:50:36;6.88;;;6.15;;
51475;SDS011;37554;50.362;7.568;2023-11-18T01:53:03;6.47;;;5.88;;
51475;SDS011;37554;50.362;7.568;2023-11-18T01:55:29;6.38;;;5.78;;
51475;SDS011;37554;50.362;7.568;2023-11-18T01:57:55;6.60;;;5.95;;
51475;SDS011;37554;50.362;7.568;2023-11-18T02:00:22;6.72;;;6.10;;
51475;SDS011;37554;50.362;7.568;2023-11-18T02:02:49;6.70;;;6.10;;
51475;SDS011;37554;50.362;7.568;2023-11-18T02:05:15;6.35;;;5.72;;
51475;SDS011;37554;50.362;7.568;2023-11-18T02:07:42;6.70;;;6.10;;
51475;SDS011;37554;50.362;7.568;2023-11-18T02:10:08;7.65;;;6.38;;
51475;SDS011;37554;50.362;7.568;2023-11-18T02:12:43;7.45;;;6.13;;
51475;SDS011;37554;50.362;7.568;2023-11-18T02:15:21;8.32;;;6.10;;
51475;SDS011;37554;50.362;7.568;2023-11-18T02:17:48;7.53;;;6.05;;
51475;SDS011;37554;50.362;7.568;2023-11-18T02:20:17;5.78;;;5.28;;
51475;SDS011;37554;50.362;7.568;2023-11-18T02:22:46;6.50;;;5.90;;
51475;SDS011;37554;50.362;7.568;2023-11-18T02:25:15;6.50;;;5.75;;
51475;SDS011;37554;50.362;7.568;2023-11-18T02:27:42;6.85;;;6.15;;
51475;SDS011;37554;50.362;7.568;2023-11-18T02:30:08;6.72;;;6.03;;
51475;SDS011;37554;50.362;7.568;2023-11-18T02:37:53;5.80;;;5.30;;
51475;SDS011;37554;50.362;7.568;2023-11-18T02:40:21;6.10;;;5.45;;
51475;SDS011;37554;50.362;7.568;2023-11-18T02:42:55;6.20;;;5.60;;
51475;SDS011;37554;50.362;7.568;2023-11-18T02:45:21;7.53;;;5.70;;
51475;SDS011;37554;50.362;7.568;2023-11-18T02:47:47;5.95;;;5.45;;
51475;SDS011;37554;50.362;7.568;2023-11-18T02:50:14;6.88;;;6.18;;
51475;SDS011;37554;50.362;7.568;2023-11-18T02:52:40;6.38;;;5.78;;
51475;SDS011;37554;50.362;7.568;2023-11-18T02:55:07;6.07;;;5.47;;
51475;SDS011;37554;50.362;7.568;2023-11-18T02:57:34;6.35;;;5.50;;
51475;SDS011;37554;50.362;7.568;2023-11-18T03:00:00;8.27;;;5.78;;
51475;SDS011;37554;50.362;7.568;2023-11-18T03:02:28;5.57;;;5.13;;
51475;SDS011;37554;50.362;7.568;2023-11-18T03:04:55;6.03;;;5.47;;
51475;SDS011;37554;50.362;7.568;2023-11-18T03:07:24;6.25;;;5.68;;
51475;SDS011;37554;50.362;7.568;2023-11-18T03:09:51;4.97;;;4.47;;
51475;SDS011;37554;50.362;7.568;2023-11-18T03:12:17;5.80;;;5.22;;
51475;SDS011;37554;50.362;7.568;2023-11-18T03:14:43;5.60;;;5.10;;
51475;SDS011;37554;50.362;7.568;2023-11-18T03:17:09;5.68;;;5.18;;
51475;SDS011;37554;50.362;7.568;2023-11-18T03:19:35;5.28;;;4.85;;
51475;SDS011;37554;50.362;7.568;2023-11-18T03:22:01;5.32;;;4.82;;
51475;SDS011;37554;50.362;7.568;2023-11-18T03:24:28;5.38;;;4.93;;
51475;SDS011;37554;50.362;7.568;2023-11-18T03:26:56;4.97;;;4.57;;
51475;SDS011;37554;50.362;7.568;2023-11-18T03:29:22;5.93;;;5.13;;
51475;SDS011;37554;50.362;7.568;2023-11-18T03:31:49;5.72;;;5.18;;
51475;SDS011;37554;50.362;7.568;2023-11-18T03:34:18;5.80;;;4.78;;
51475;SDS011;37554;50.362;7.568;2023-11-18T03:36:47;5.47;;;4.97;;
51475;SDS011;37554;50.362;7.568;2023-11-18T03:39:13;5.63;;;5.13;;
51475;SDS011;37554;50.362;7.568;2023-11-18T03:41:39;5.20;;;4.70;;
51475;SDS011;37554;50.362;7.568;2023-11-18T03:44:09;5.13;;;4.72;;
51475;SDS011;37554;50.362;7.568;2023-11-18T03:46:37;6.97;;;5.03;;
51475;SDS011;37554;50.362;7.568;2023-11-18T03:49:03;5.93;;;5.35;;
51475;SDS011;37554;50.362;7.568;2023-11-18T03:51:28;5.43;;;4.95;;
51475;SDS011;37554;50.362;7.568;2023-11-18T03:53:54;5.72;;;5.22;;
51475;SDS011;37554;50.362;7.568;2023-11-18T03:56:20;5.45;;;4.95;;
51475;SDS011;37554;50.362;7.568;2023-11-18T03:58:46;5.28;;;4.78;;
51475;SDS011;37554;50.362;7.568;2023-11-18T04:01:22;5.10;;;4.60;;
51475;SDS011;37554;50.362;7.568;2023-11-18T04:03:51;5.20;;;4.75;;
51475;SDS011;37554;50.362;7.568;2023-11-18T04:06:17;5.20;;;4.70;;
51475;SDS011;37554;50.362;7.568;2023-11-18T04:08:45;5.95;;;4.93;;
51475;SDS011;37554;50.362;7.568;2023-11-18T04:11:12;5.10;;;4.70;;
51475;SDS011;37554;50.362;7.568;2023-11-18T04:13:39;4.97;;;4.57;;
51475;SDS011;37554;50.362;7.568;2023-11-18T04:16:11;6.85;;;4.43;;
51475;SDS011;37554;50.362;7.568;2023-11-18T04:18:41;4.90;;;4.50;;
51475;SDS011;37554;50.362;7.568;2023-11-18T04:21:08;4.50;;;4.10;;
51475;SDS011;37554;50.362;7.568;2023-11-18T04:23:38;4.85;;;4.45;;
51475;SDS011;37554;50.362;7.568;2023-11-18T04:26:07;5.30;;;4.90;;
51475;SDS011;37554;50.362;7.568;2023-11-18T04:28:34;4.95;;;4.53;;
51475;SDS011;37554;50.362;7.568;2023-11-18T04:31:00;4.75;;;4.35;;
51475;SDS011;37554;50.362;7.568;2023-11-18T04:33:26;5.80;;;4.47;;
51475;SDS011;37554;50.362;7.568;2023-11-18T04:35:52;4.50;;;4.10;;
51475;SDS011;37554;50.362;7.568;2023-11-18T04:38:17;5.47;;;4.47;;
51475;SDS011;37554;50.362;7.568;2023-11-18T04:40:44;5.15;;;4.72;;
51475;SDS011;37554;50.362;7.568;2023-11-18T04:43:11;5.90;;;4.93;;
51475;SDS011;37554;50.362;7.568;2023-11-18T04:45:37;4.93;;;4.53;;
51475;SDS011;37554;50.362;7.568;2023-11-18T04:48:03;6.85;;;5.03;;
51475;SDS011;37554;50.362;7.568;2023-11-18T04:50:29;5.00;;;4.40;;
51475;SDS011;37554;50.362;7.568;2023-11-18T04:52:58;4.93;;;4.53;;
51475;SDS011;37554;50.362;7.568;2023-11-18T04:55:23;4.60;;;4.20;;
51475;SDS011;37554;50.362;7.568;2023-11-18T04:57:51;4.95;;;4.47;;
51475;SDS011;37554;50.362;7.568;2023-11-18T05:00:17;4.60;;;4.20;;
51475;SDS011;37554;50.362;7.568;2023-11-18T05:02:44;4.80;;;4.40;;
51475;SDS011;37554;50.362;7.568;2023-11-18T05:05:13;5.20;;;4.28;;
51475;SDS011;37554;50.362;7.568;2023-11-18T05:07:40;4.40;;;4.00;;
51475;SDS011;37554;50.362;7.568;2023-11-18T05:10:07;4.38;;;3.97;;
51475;SDS011;37554;50.362;7.568;2023-11-18T05:12:33;4.55;;;4.15;;
51475;SDS011;37554;50.362;7.568;2023-11-18T05:14:59;4.63;;;4.22;;
51475;SDS011;37554;50.362;7.568;2023-11-18T05:17:25;4.72;;;4.32;;
51475;SDS011;37554;50.362;7.568;2023-11-18T05:19:55;4.78;;;4.30;;
51475;SDS011;37554;50.362;7.568;2023-11-18T05:22:20;5.10;;;4.60;;
51475;SDS011;37554;50.362;7.568;2023-11-18T05:24:46;5.35;;;4.60;;
51475;SDS011;37554;50.362;7.568;2023-11-18T05:27:13;5.30;;;4.80;;
51475;SDS011;37554;50.362;7.568;2023-11-18T05:29:39;5.63;;;4.68;;
51475;SDS011;37554;50.362;7.568;2023-11-18T05:32:06;4.95;;;4.50;;
51475;SDS011;37554;50.362;7.568;2023-11-18T05:34:32;5.15;;;4.65;;
51475;SDS011;37554;50.362;7.568;2023-11-18T05:37:00;4.88;;;4.47;;
51475;SDS011;37554;50.362;7.568;2023-11-18T05:39:26;4.70;;;4.30;;
51475;SDS011;37554;50.362;7.568;2023-11-18T05:41:53;4.60;;;4.20;;
51475;SDS011;37554;50.362;7.568;2023-11-18T05:44:21;4.30;;;3.90;;
51475;SDS011;37554;50.362;7.568;2023-11-18T05:46:55;4.15;;;3.85;;
51475;SDS011;37554;50.362;7.568;2023-11-18T05:49:24;4.78;;;4.20;;
51475;SDS011;37554;50.362;7.568;2023-11-18T05:51:53;4.30;;;3.90;;
51475;SDS011;37554;50.362;7.568;2023-11-18T05:54:18;4.32;;;4.03;;
51475;SDS011;37554;50.362;7.568;2023-11-18T05:56:44;4.15;;;3.75;;
51475;SDS011;37554;50.362;7.568;2023-11-18T05:59:09;4.55;;;4.15;;
51475;SDS011;37554;50.362;7.568;2023-11-18T06:01:36;3.80;;;3.50;;
51475;SDS011;37554;50.362;7.568;2023-11-18T06:04:02;3.97;;;3.67;;
51475;SDS011;37554;50.362;7.568;2023-11-18T06:06:28;4.22;;;3.88;;
51475;SDS011;37554;50.362;7.568;2023-11-18T06:08:56;4.90;;;4.50;;
51475;SDS011;37554;50.362;7.568;2023-11-18T06:11:24;4.60;;;4.20;;
51475;SDS011;37554;50.362;7.568;2023-11-18T06:13:50;4.85;;;3.88;;
51475;SDS011;37554;50.362;7.568;2023-11-18T06:16:20;4.65;;;3.75;;
51475;SDS011;37554;50.362;7.568;2023-11-18T06:18:47;4.38;;;3.97;;
51475;SDS011;37554;50.362;7.568;2023-11-18T06:21:15;4.05;;;3.75;;
51475;SDS011;37554;50.362;7.568;2023-11-18T06:23:43;4.38;;;3.97;;
51475;SDS011;37554;50.362;7.568;2023-11-18T06:26:10;4.60;;;4.20;;
51475;SDS011;37554;50.362;7.568;2023-11-18T06:28:48;4.45;;;4.05;;
51475;SDS011;37554;50.362;7.568;2023-11-18T06:31:20;4.65;;;3.83;;
51475;SDS011;37554;50.362;7.568;2023-11-18T06:33:48;4.18;;;3.88;;
51475;SDS011;37554;50.362;7.568;2023-11-18T06:38:41;3.85;;;3.55;;
51475;SDS011;37554;50.362;7.568;2023-11-18T06:41:08;4.55;;;4.15;;
51475;SDS011;37554;50.362;7.568;2023-11-18T06:43:37;4.60;;;4.00;;
51475;SDS011;37554;50.362;7.568;2023-11-18T06:46:22;4.47;;;3.47;;
51475;SDS011;37554;50.362;7.568;2023-11-18T06:48:49;4.15;;;3.85;;
51475;SDS011;37554;50.362;7.568;2023-11-18T06:51:19;4.07;;;3.67;;
51475;SDS011;37554;50.362;7.568;2023-11-18T06:53:51;4.13;;;3.72;;
51475;SDS011;37554;50.362;7.568;2023-11-18T06:56:17;4.20;;;3.83;;
51475;SDS011;37554;50.362;7.568;2023-11-18T06:58:43;4.53;;;3.30;;
51475;SDS011;37554;50.362;7.568;2023-11-18T07:01:09;3.70;;;3.40;;
51475;SDS011;37554;50.362;7.568;2023-11-18T07:03:38;3.70;;;3.40;;
51475;SDS011;37554;50.362;7.568;2023-11-18T07:06:06;4.10;;;3.70;;
51475;SDS011;37554;50.362;7.568;2023-11-18T07:08:32;4.43;;;4.03;;
51475;SDS011;37554;50.362;7.568;2023-11-18T07:11:00;4.60;;;4.20;;
51475;SDS011;37554;50.362;7.568;2023-11-18T07:13:26;4.05;;;3.75;;
51475;SDS011;37554;50.362;7.568;2023-11-18T07:15:52;4.00;;;3.70;;
51475;SDS011;37554;50.362;7.568;2023-11-18T07:18:21;3.83;;;3.53;;
51475;SDS011;37554;50.362;7.568;2023-11-18T07:20:48;4.13;;;3.83;;
51475;SDS011;37554;50.362;7.568;2023-11-18T07:23:14;3.78;;;3.47;;
51475;SDS011;37554;50.362;7.568;2023-11-18T07:25:42;4.25;;;3.85;;
51475;SDS011;37554;50.362;7.568;2023-11-18T07:28:09;3.20;;;3.00;;
51475;SDS011;37554;50.362;7.568;2023-11-18T07:30:35;3.78;;;3.47;;
51475;SDS011;37554;50.362;7.568;2023-11-18T07:33:04;3.33;;;3.03;;
51475;SDS011;37554;50.362;7.568;2023-11-18T07:35:30;3.78;;;3.25;;
51475;SDS011;37554;50.362;7.568;2023-11-18T07:37:56;3.78;;;3.47;;
51475;SDS011;37554;50.362;7.568;2023-11-18T07:40:23;3.67;;;3.38;;
51475;SDS011;37554;50.362;7.568;2023-11-18T07:42:56;3.55;;;3.25;;
51475;SDS011;37554;50.362;7.568;2023-11-18T07:45:22;3.42;;;3.13;;
51475;SDS011;37554;50.362;7.568;2023-11-18T07:47:51;3.58;;;3.25;;
51475;SDS011;37554;50.362;7.568;2023-11-18T07:50:17;3.58;;;3.28;;
51475;SDS011;37554;50.362;7.568;2023-11-18T07:52:45;3.42;;;2.85;;
51475;SDS011;37554;50.362;7.568;2023-11-18T07:55:12;2.90;;;2.70;;
51475;SDS011;37554;50.362;7.568;2023-11-18T07:57:40;2.95;;;2.75;;
51475;SDS011;37554;50.362;7.568;2023-11-18T08:00:06;3.10;;;2.78;;
51475;SDS011;37554;50.362;7.568;2023-11-18T08:02:36;6.80;;;3.10;;
51475;SDS011;37554;50.362;7.568;2023-11-18T08:05:02;2.90;;;2.70;;
51475;SDS011;37554;50.362;7.568;2023-11-18T08:07:28;4.15;;;2.72;;
51475;SDS011;37554;50.362;7.568;2023-11-18T08:09:54;2.75;;;2.55;;
51475;SDS011;37554;50.362;7.568;2023-11-18T08:12:19;3.22;;;2.92;;
51475;SDS011;37554;50.362;7.568;2023-11-18T08:14:45;2.90;;;2.70;;
51475;SDS011;37554;50.362;7.568;2023-11-18T08:17:12;3.08;;;2.78;;
51475;SDS011;37554;50.362;7.568;2023-11-18T08:19:38;2.63;;;2.38;;
51475;SDS011;37554;50.362;7.568;2023-11-18T08:22:04;2.97;;;2.78;;
51475;SDS011;37554;50.362;7.568;2023-11-18T08:24:31;3.25;;;2.88;;
51475;SDS011;37554;50.362;7.568;2023-11-18T08:26:58;2.90;;;2.70;;
51475;SDS011;37554;50.362;7.568;2023-11-18T08:29:24;2.95;;;2.50;;
51475;SDS011;37554;50.362;7.568;2023-11-18T08:31:53;3.55;;;2.70;;
51475;SDS011;37554;50.362;7.568;2023-11-18T08:34:18;2.72;;;2.53;;
51475;SDS011;37554;50.362;7.568;2023-11-18T08:36:44;2.58;;;2.38;;
51475;SDS011;37554;50.362;7.568;2023-11-18T08:39:10;2.50;;;2.30;;
51475;SDS011;37554;50.362;7.568;2023-11-18T08:41:36;2.25;;;2.05;;
51475;SDS011;37554;50.362;7.568;2023-11-18T08:44:02;2.40;;;2.25;;
51475;SDS011;37554;50.362;7.568;2023-11-18T08:46:28;2.42;;;2.22;;
51475;SDS011;37554;50.362;7.568;2023-11-18T08:48:54;2.40;;;2.20;;
51475;SDS011;37554;50.362;7.568;2023-11-18T08:51:21;2.50;;;2.30;;
51475;SDS011;37554;50.362;7.568;2023-11-18T08:53:51;2.60;;;2.08;;
51475;SDS011;37554;50.362;7.568;2023-11-18T08:56:19;2.35;;;2.15;;
51475;SDS011;37554;50.362;7.568;2023-11-18T08:58:49;1.90;;;1.70;;
51475;SDS011;37554;50.362;7.568;2023-11-18T09:01:16;2.47;;;2.15;;
51475;SDS011;37554;50.362;7.568;2023-11-18T09:03:42;2.03;;;1.90;;
51475;SDS011;37554;50.362;7.568;2023-11-18T09:06:09;1.90;;;1.80;;
51475;SDS011;37554;50.362;7.568;2023-11-18T09:08:51;1.98;;;1.88;;
51475;SDS011;37554;50.362;7.568;2023-11-18T09:11:23;2.08;;;1.98;;
51475;SDS011;37554;50.362;7.568;2023-11-18T09:13:53;2.25;;;2.00;;
51475;SDS011;37554;50.362;7.568;2023-11-18T09:16:22;2.20;;;2.00;;
51475;SDS011;37554;50.362;7.568;2023-11-18T09:18:49;3.13;;;2.00;;
51475;SDS011;37554;50.362;7.568;2023-11-18T09:21:16;2.22;;;2.00;;
51475;SDS011;37554;50.362;7.568;2023-11-18T09:23:49;2.28;;;2.08;;
51475;SDS011;37554;50.362;7.568;2023-11-18T09:26:15;1.73;;;1.63;;
51475;SDS011;37554;50.362;7.568;2023-11-18T09:28:41;1.80;;;1.70;;
51475;SDS011;37554;50.362;7.568;2023-11-18T09:31:09;1.98;;;1.77;;
51475;SDS011;37554;50.362;7.568;2023-11-18T09:33:39;1.98;;;1.63;;
51475;SDS011;37554;50.362;7.568;2023-11-18T09:36:09;1.88;;;1.77;;
51475;SDS011;37554;50.362;7.568;2023-11-18T09:38:37;1.90;;;1.80;;
51475;SDS011;37554;50.362;7.568;2023-11-18T09:41:07;2.88;;;2.40;;
51475;SDS011;37554;50.362;7.568;2023-11-18T09:43:39;2.33;;;2.10;;
51475;SDS011;37554;50.362;7.568;2023-11-18T09:48:44;2.20;;;2.00;;
51475;SDS011;37554;50.362;7.568;2023-11-18T09:51:12;1.80;;;1.70;;
51475;SDS011;37554;50.362;7.568;2023-11-18T09:53:46;2.10;;;2.00;;
51475;SDS011;37554;50.362;7.568;2023-11-18T10:01:50;1.98;;;1.77;;
51475;SDS011;37554;50.362;7.568;2023-11-18T10:04:21;2.20;;;1.52;;
51475;SDS011;37554;50.362;7.568;2023-11-18T10:06:52;1.98;;;1.77;;
51475;SDS011;37554;50.362;7.568;2023-11-18T10:09:19;2.35;;;1.90;;
51475;SDS011;37554;50.362;7.568;2023-11-18T10:11:53;2.40;;;2.20;;
51475;SDS011;37554;50.362;7.568;2023-11-18T10:14:30;2.70;;;2.00;;
51475;SDS011;37554;50.362;7.568;2023-11-18T10:16:59;2.63;;;1.70;;
51475;SDS011;37554;50.362;7.568;2023-11-18T10:22:27;3.35;;;1.73;;
51475;SDS011;37554;50.362;7.568;2023-11-18T10:24:54;2.10;;;1.95;;
51475;SDS011;37554;50.362;7.568;2023-11-18T10:27:25;2.20;;;2.00;;
51475;SDS011;37554;50.362;7.568;2023-11-18T10:29:55;2.33;;;1.80;;
51475;SDS011;37554;50.362;7.568;2023-11-18T10:32:27;1.88;;;1.70;;
51475;SDS011;37554;50.362;7.568;2023-11-18T10:34:56;2.03;;;1.83;;
51475;SDS011;37554;50.362;7.568;2023-11-18T10:37:23;1.88;;;1.73;;
51475;SDS011;37554;50.362;7.568;2023-11-18T10:39:50;1.77;;;1.67;;
51475;SDS011;37554;50.362;7.568;2023-11-18T10:42:16;2.35;;;2.08;;
51475;SDS011;37554;50.362;7.568;2023-11-18T10:44:58;2.00;;;1.77;;
51475;SDS011;37554;50.362;7.568;2023-11-18T10:47:28;2.40;;;1.98;;
51475;SDS011;37554;50.362;7.568;2023-11-18T10:49:54;2.63;;;2.03;;
51475;SDS011;37554;50.362;7.568;2023-11-18T10:52:21;2.15;;;1.80;;
51475;SDS011;37554;50.362;7.568;2023-11-18T10:54:50;2.00;;;1.80;;
51475;SDS011;37554;50.362;7.568;2023-11-18T10:57:19;2.05;;;1.90;;
51475;SDS011;37554;50.362;7.568;2023-11-18T10:59:58;2.35;;;1.98;;
51475;SDS011;37554;50.362;7.568;2023-11-18T11:02:32;3.60;;;1.92;;
51475;SDS011;37554;50.362;7.568;2023-11-18T11:05:03;3.28;;;2.30;;
51475;SDS011;37554;50.362;7.568;2023-11-18T11:07:29;2.83;;;2.20;;
51475;SDS011;37554;50.362;7.568;2023-11-18T11:09:57;2.85;;;2.20;;
51475;SDS011;37554;50.362;7.568;2023-11-18T11:12:29;3.13;;;2.30;;
51475;SDS011;37554;50.362;7.568;2023-11-18T11:15:10;2.92;;;2.15;;
51475;SDS011;37554;50.362;7.568;2023-11-18T11:17:46;2.80;;;2.17;;
51475;SDS011;37554;50.362;7.568;2023-11-18T11:20:21;5.10;;;2.50;;
51475;SDS011;37554;50.362;7.568;2023-11-18T11:28:53;2.92;;;2.60;;
51475;SDS011;37554;50.362;7.568;2023-11-18T11:31:41;4.65;;;2.22;;
51475;SDS011;37554;50.362;7.568;2023-11-18T11:34:19;3.22;;;2.10;;
51475;SDS011;37554;50.362;7.568;2023-11-18T11:36:48;2.45;;;2.17;;
51475;SDS011;37554;50.362;7.568;2023-11-18T11:39:16;3.67;;;2.97;;
51475;SDS011;37554;50.362;7.568;2023-11-18T11:41:51;4.13;;;2.50;;
51475;SDS011;37554;50.362;7.568;2023-11-18T11:44:21;3.80;;;2.30;;
51475;SDS011;37554;50.362;7.568;2023-11-18T11:46:57;2.45;;;2.25;;
51475;SDS011;37554;50.362;7.568;2023-11-18T11:49:25;2.38;;;2.17;;
51475;SDS011;37554;50.362;7.568;2023-11-18T11:52:01;2.72;;;2.20;;
51475;SDS011;37554;50.362;7.568;2023-11-18T11:54:38;4.18;;;2.30;;
51475;SDS011;37554;50.362;7.568;2023-11-18T11:57:10;2.65;;;2.20;;
51475;SDS011;37554;50.362;7.568;2023-11-18T12:02:12;3.35;;;2.55;;
51475;SDS011;37554;50.362;7.568;2023-11-18T12:04:47;3.17;;;2.20;;
51475;SDS011;37554;50.362;7.568;2023-11-18T12:07:17;4.05;;;2.10;;
51475;SDS011;37554;50.362;7.568;2023-11-18T12:09:58;2.95;;;2.50;;
51475;SDS011;37554;50.362;7.568;2023-11-18T12:12:25;3.20;;;2.38;;
51475;SDS011;37554;50.362;7.568;2023-11-18T12:14:53;3.42;;;2.30;;
51475;SDS011;37554;50.362;7.568;2023-11-18T12:17:31;2.22;;;1.95;;
51475;SDS011;37554;50.362;7.568;2023-11-18T12:23:22;2.25;;;1.92;;
51475;SDS011;37554;50.362;7.568;2023-11-18T12:25:49;3.03;;;2.38;;
51475;SDS011;37554;50.362;7.568;2023-11-18T12:28:28;2.20;;;2.00;;
51475;SDS011;37554;50.362;7.568;2023-11-18T12:31:00;2.30;;;1.80;;
51475;SDS011;37554;50.362;7.568;2023-11-18T12:41:55;2.45;;;1.90;;
51475;SDS011;37554;50.362;7.568;2023-11-18T12:44:36;3.35;;;2.13;;
51475;SDS011;37554;50.362;7.568;2023-11-18T12:47:04;2.40;;;2.05;;
51475;SDS011;37554;50.362;7.568;2023-11-18T12:49:42;3.67;;;1.80;;
51475;SDS011;37554;50.362;7.568;2023-11-18T12:52:10;4.40;;;2.28;;
51475;SDS011;37554;50.362;7.568;2023-11-18T12:54:39;3.08;;;2.15;;
51475;SDS011;37554;50.362;7.568;2023-11-18T12:57:12;2.72;;;1.85;;
51475;SDS011;37554;50.362;7.568;2023-11-18T12:59:41;2.75;;;1.90;;
51475;SDS011;37554;50.362;7.568;2023-11-18T13:02:08;2.53;;;1.95;;
51475;SDS011;37554;50.362;7.568;2023-11-18T13:04:38;2.97;;;2.30;;
51475;SDS011;37554;50.362;7.568;2023-11-18T13:07:07;4.28;;;2.03;;
51475;SDS011;37554;50.362;7.568;2023-11-18T13:09:37;2.90;;;2.08;;
51475;SDS011;37554;50.362;7.568;2023-11-18T13:12:06;4.75;;;2.70;;
51475;SDS011;37554;50.362;7.568;2023-11-18T13:14:34;3.78;;;3.00;;
51475;SDS011;37554;50.362;7.568;2023-11-18T13:17:05;5.00;;;3.03;;
51475;SDS011;37554;50.362;7.568;2023-11-18T13:19:36;5.72;;;3.35;;
51475;SDS011;37554;50.362;7.568;2023-11-18T13:22:03;3.20;;;2.40;;
51475;SDS011;37554;50.362;7.568;2023-11-18T13:24:33;3.20;;;2.70;;
51475;SDS011;37554;50.362;7.568;2023-11-18T13:26:59;2.95;;;2.55;;
51475;SDS011;37554;50.362;7.568;2023-11-18T13:29:29;3.83;;;2.22;;
51475;SDS011;37554;50.362;7.568;2023-11-18T13:31:57;3.83;;;2.22;;
51475;SDS011;37554;50.362;7.568;2023-11-18T13:34:28;2.83;;;2.03;;
51475;SDS011;37554;50.362;7.568;2023-11-18T13:36:55;4.55;;;2.35;;
51475;SDS011;37554;50.362;7.568;2023-11-18T13:39:23;3.50;;;1.92;;
51475;SDS011;37554;50.362;7.568;2023-11-18T13:41:52;3.03;;;1.92;;
51475;SDS011;37554;50.362;7.568;2023-11-18T13:44:34;2.30;;;1.92;;
51475;SDS011;37554;50.362;7.568;2023-11-18T13:47:04;2.53;;;1.90;;
51475;SDS011;37554;50.362;7.568;2023-11-18T13:49:33;3.83;;;1.85;;
51475;SDS011;37554;50.362;7.568;2023-11-18T13:51:59;3.72;;;1.95;;
51475;SDS011;37554;50.362;7.568;2023-11-18T13:54:28;3.13;;;1.65;;
51475;SDS011;37554;50.362;7.568;2023-11-18T13:56:55;3.22;;;2.08;;
51475;SDS011;37554;50.362;7.568;2023-11-18T13:59:24;2.60;;;1.90;;
51475;SDS011;37554;50.362;7.568;2023-11-18T14:01:51;2.83;;;1.85;;
51475;SDS011;37554;50.362;7.568;2023-11-18T14:04:24;1.98;;;1.73;;
51475;SDS011;37554;50.362;7.568;2023-11-18T14:06:53;3.97;;;1.70;;
51475;SDS011;37554;50.362;7.568;2023-11-18T14:09:22;3.15;;;1.30;;
51475;SDS011;37554;50.362;7.568;2023-11-18T14:11:50;2.65;;;1.80;;
51475;SDS011;37554;50.362;7.568;2023-11-18T14:14:16;2.03;;;1.65;;
51475;SDS011;37554;50.362;7.568;2023-11-18T14:16:43;2.45;;;1.63;;
51475;SDS011;37554;50.362;7.568;2023-11-18T14:19:08;3.20;;;1.67;;
51475;SDS011;37554;50.362;7.568;2023-11-18T14:21:36;1.92;;;1.45;;
51475;SDS011;37554;50.362;7.568;2023-11-18T14:24:01;2.75;;;1.63;;
51475;SDS011;37554;50.362;7.568;2023-11-18T14:26:28;2.38;;;1.52;;
51475;SDS011;37554;50.362;7.568;2023-11-18T14:28:55;2.30;;;1.35;;
51475;SDS011;37554;50.362;7.568;2023-11-18T14:31:22;3.88;;;1.60;;
51475;SDS011;37554;50.362;7.568;2023-11-18T14:33:47;3.60;;;1.80;;
51475;SDS011;37554;50.362;7.568;2023-11-18T14:36:13;2.00;;;1.60;;
51475;SDS011;37554;50.362;7.568;2023-11-18T14:38:39;2.83;;;1.50;;
51475;SDS011;37554;50.362;7.568;2023-11-18T14:41:05;2.10;;;1.58;;
51475;SDS011;37554;50.362;7.568;2023-11-18T14:43:32;2.25;;;1.40;;
51475;SDS011;37554;50.362;7.568;2023-11-18T14:45:59;2.75;;;1.67;;
51475;SDS011;37554;50.362;7.568;2023-11-18T14:48:25;2.28;;;1.17;;
51475;SDS011;37554;50.362;7.568;2023-11-18T14:50:51;4.30;;;1.63;;
51475;SDS011;37554;50.362;7.568;2023-11-18T14:53:17;2.22;;;1.48;;
51475;SDS011;37554;50.362;7.568;2023-11-18T14:55:45;2.72;;;1.58;;
51475;SDS011;37554;50.362;7.568;2023-11-18T14:58:11;2.67;;;1.70;;
51475;SDS011;37554;50.362;7.568;2023-11-18T15:00:37;3.00;;;1.67;;
51475;SDS011;37554;50.362;7.568;2023-11-18T15:03:02;1.85;;;1.27;;
51475;SDS011;37554;50.362;7.568;2023-11-18T15:05:28;3.03;;;1.38;;
51475;SDS011;37554;50.362;7.568;2023-11-18T15:07:56;2.25;;;1.38;;
51475;SDS011;37554;50.362;7.568;2023-11-18T15:10:24;3.95;;;1.48;;
51475;SDS011;37554;50.362;7.568;2023-11-18T15:12:51;2.30;;;1.58;;
51475;SDS011;37554;50.362;7.568;2023-11-18T15:15:25;1.67;;;1.20;;
51475;SDS011;37554;50.362;7.568;2023-11-18T15:18:04;3.25;;;1.15;;
51475;SDS011;37554;50.362;7.568;2023-11-18T15:20:33;2.15;;;1.23;;
51475;SDS011;37554;50.362;7.568;2023-11-18T15:22:59;2.25;;;1.42;;
51475;SDS011;37554;50.362;7.568;2023-11-18T15:25:26;3.03;;;1.10;;
51475;SDS011;37554;50.362;7.568;2023-11-18T15:27:52;2.13;;;1.23;;
51475;SDS011;37554;50.362;7.568;2023-11-18T15:30:17;1.30;;;1.00;;
51475;SDS011;37554;50.362;7.568;2023-11-18T15:32:52;1.80;;;0.90;;